Sprague River, Oregon
Current Conditions -  °F | °C
As of 8:09 AM on Friday 21 Nov 2014 (Local Time) from KLMT Reporting Station
Light Fog Light Fog  
Wind Chill: 29°   Ceiling: Unl
Heat Index: 33°   Visibility: 8mi
Dew Point: 31°   Wind: 5mph
Humidity: 92%   Direction: 120°ESE
Pressure: 30.01"   Gusts: NA
Location:  42.46°N, 121.51°W
Report Text: KLMT 211609Z 12004KT 8SM BCFG FEW030 01/M01 A3001 RMK AO2 VIS W-NE 2SM T00061006
Loading
Personal Weather Stations






























Interactive Weather Map New forecast layout! Learn more

10-Day Weather Forecast

Advertisements
Track Severe Weather on mobile